Elk Mountain, WY (82324)

8:23 PM MDT on August 31, 2016 (GMT -0600)
WYDOT | | Change Station

Elev 7724 ft 41.62 °N, 106.24 °W | Updated 28 minutes ago

Clear
Clear
63.0 °F
Feels Like 63.0 °F
N
27.0
Wind Variable Wind from ESE
Gusts 0.0 mph

Today
High -- | Low -- °F
--% Chance of Precip.
Yesterday
High -- | Low -- °F
Precip. -- in
Pressure 30.24 in
Visibility 10.0 miles
Clouds Clear
Dew Point 46.0 °F
Humidity 54%
Rainfall in
Snow Depth Not available.
6:31 AM 7:39 PM
Waning Crescent, 0% visible
METAR KSAA 010215Z AUTO 00000KT 10SM CLR 21/00 A3024 RMK AO2
Pressure 30.24 in
Visibility 10.0 miles
Clouds Clear
Dew Point 46.0 °F
Humidity 54%
Rainfall in
Snow Depth Not available.
6:31 AM 7:39 PM
Waning Crescent, 0% visible
METAR KSAA 010215Z AUTO 00000KT 10SM CLR 21/00 A3024 RMK AO2

10-Day Weather Forecast

Almanac

Astronomy

Aug. 31, 2016 Rise Set
Actual Time
Civil Twilight
Nautical Twilight
Astronomical Twilight
Moon
Length of Visible Light
Length of Day
Tomorrow will be .
, % of the Moon is Illuminated

Today's Extremes

State Highs State Lows

Community

WunderPhotos

Upload Photos

1,936,278 photos uploaded!

WunderBlog® & News

Nearby

Air Quality

  Air Quality AQ Index Pollutant
Not available.

Snow Depth

Station Depth Elevation

Earthquake Activity

City Distance Mag. Time & Date
Minimum magnitude displayed is 2.5.

Coastal Water Temperatures

Place Temperature

Stations

Nearby Weather Stations

Station Location Temp. Windchill Dew Point Humidity Wind Precip. Elev Updated Type
                   

Watches & Warnings

There are currently no watches in effect.